sensor_id;sensor_type;location;lat;lon;timestamp;P1;durP1;ratioP1;P2;durP2;ratioP2
32198;SDS011;19221;42.656;21.156;2023-02-01T00:01:22;26.73;;;14.55;;
32198;SDS011;19221;42.656;21.156;2023-02-01T00:03:48;30.95;;;17.02;;
32198;SDS011;19221;42.656;21.156;2023-02-01T00:06:14;27.60;;;15.50;;
32198;SDS011;19221;42.656;21.156;2023-02-01T00:08:39;21.40;;;13.85;;
32198;SDS011;19221;42.656;21.156;2023-02-01T00:11:06;23.83;;;13.80;;
32198;SDS011;19221;42.656;21.156;2023-02-01T00:13:33;24.35;;;13.77;;
32198;SDS011;19221;42.656;21.156;2023-02-01T00:16:05;22.52;;;12.27;;
32198;SDS011;19221;42.656;21.156;2023-02-01T00:18:31;19.00;;;11.13;;
32198;SDS011;19221;42.656;21.156;2023-02-01T00:20:57;16.80;;;9.77;;
32198;SDS011;19221;42.656;21.156;2023-02-01T00:23:23;16.38;;;9.27;;
32198;SDS011;19221;42.656;21.156;2023-02-01T00:25:48;16.83;;;10.18;;
32198;SDS011;19221;42.656;21.156;2023-02-01T00:28:14;21.02;;;12.95;;
32198;SDS011;19221;42.656;21.156;2023-02-01T00:30:40;20.10;;;11.43;;
32198;SDS011;19221;42.656;21.156;2023-02-01T00:33:07;20.83;;;11.25;;
32198;SDS011;19221;42.656;21.156;2023-02-01T00:35:34;16.63;;;9.75;;
32198;SDS011;19221;42.656;21.156;2023-02-01T00:37:59;29.17;;;16.50;;
32198;SDS011;19221;42.656;21.156;2023-02-01T00:40:26;28.98;;;15.13;;
32198;SDS011;19221;42.656;21.156;2023-02-01T00:42:51;26.08;;;16.10;;
32198;SDS011;19221;42.656;21.156;2023-02-01T00:45:17;20.42;;;12.20;;
32198;SDS011;19221;42.656;21.156;2023-02-01T00:47:43;29.35;;;16.58;;
32198;SDS011;19221;42.656;21.156;2023-02-01T00:50:09;36.75;;;18.88;;
32198;SDS011;19221;42.656;21.156;2023-02-01T00:52:35;38.35;;;22.52;;
32198;SDS011;19221;42.656;21.156;2023-02-01T00:55:01;40.05;;;22.95;;
32198;SDS011;19221;42.656;21.156;2023-02-01T00:57:26;43.67;;;22.67;;
32198;SDS011;19221;42.656;21.156;2023-02-01T00:59:52;42.20;;;24.02;;
32198;SDS011;19221;42.656;21.156;2023-02-01T01:02:18;39.95;;;21.83;;
32198;SDS011;19221;42.656;21.156;2023-02-01T01:04:43;27.27;;;16.08;;
32198;SDS011;19221;42.656;21.156;2023-02-01T01:07:09;18.48;;;10.50;;
32198;SDS011;19221;42.656;21.156;2023-02-01T01:09:35;20.23;;;11.10;;
32198;SDS011;19221;42.656;21.156;2023-02-01T01:12:00;28.95;;;16.88;;
32198;SDS011;19221;42.656;21.156;2023-02-01T01:14:28;22.45;;;14.07;;
32198;SDS011;19221;42.656;21.156;2023-02-01T01:16:54;24.48;;;13.15;;
32198;SDS011;19221;42.656;21.156;2023-02-01T01:19:19;25.92;;;13.88;;
32198;SDS011;19221;42.656;21.156;2023-02-01T01:21:45;22.42;;;13.10;;
32198;SDS011;19221;42.656;21.156;2023-02-01T01:24:10;21.60;;;12.18;;
32198;SDS011;19221;42.656;21.156;2023-02-01T01:26:36;22.30;;;13.10;;
32198;SDS011;19221;42.656;21.156;2023-02-01T01:29:02;20.92;;;10.65;;
32198;SDS011;19221;42.656;21.156;2023-02-01T01:31:28;19.92;;;11.60;;
32198;SDS011;19221;42.656;21.156;2023-02-01T01:33:55;19.50;;;11.35;;
32198;SDS011;19221;42.656;21.156;2023-02-01T01:36:21;18.63;;;10.45;;
32198;SDS011;19221;42.656;21.156;2023-02-01T01:38:47;21.20;;;11.50;;
32198;SDS011;19221;42.656;21.156;2023-02-01T01:41:14;21.65;;;11.48;;
32198;SDS011;19221;42.656;21.156;2023-02-01T01:46:16;15.30;;;8.85;;
32198;SDS011;19221;42.656;21.156;2023-02-01T01:48:41;15.93;;;9.57;;
32198;SDS011;19221;42.656;21.156;2023-02-01T01:51:08;14.63;;;9.43;;
32198;SDS011;19221;42.656;21.156;2023-02-01T01:53:39;15.88;;;9.10;;
32198;SDS011;19221;42.656;21.156;2023-02-01T01:56:07;19.05;;;10.85;;
32198;SDS011;19221;42.656;21.156;2023-02-01T01:58:33;19.23;;;10.68;;
32198;SDS011;19221;42.656;21.156;2023-02-01T02:00:59;20.20;;;9.68;;
32198;SDS011;19221;42.656;21.156;2023-02-01T02:03:26;20.98;;;12.85;;
32198;SDS011;19221;42.656;21.156;2023-02-01T02:05:54;20.25;;;11.50;;
32198;SDS011;19221;42.656;21.156;2023-02-01T02:08:20;28.65;;;14.23;;
32198;SDS011;19221;42.656;21.156;2023-02-01T02:10:48;17.48;;;7.65;;
32198;SDS011;19221;42.656;21.156;2023-02-01T02:13:41;12.05;;;7.80;;
32198;SDS011;19221;42.656;21.156;2023-02-01T02:18:38;17.83;;;10.90;;
32198;SDS011;19221;42.656;21.156;2023-02-01T02:21:12;17.35;;;9.95;;
32198;SDS011;19221;42.656;21.156;2023-02-01T02:38:46;21.52;;;11.80;;
32198;SDS011;19221;42.656;21.156;2023-02-01T02:44:12;20.15;;;12.35;;
32198;SDS011;19221;42.656;21.156;2023-02-01T02:47:00;21.67;;;13.57;;
32198;SDS011;19221;42.656;21.156;2023-02-01T02:49:50;21.52;;;14.23;;
32198;SDS011;19221;42.656;21.156;2023-02-01T02:52:38;28.70;;;15.77;;
32198;SDS011;19221;42.656;21.156;2023-02-01T02:55:26;27.13;;;16.33;;
32198;SDS011;19221;42.656;21.156;2023-02-01T02:57:52;33.20;;;20.90;;
32198;SDS011;19221;42.656;21.156;2023-02-01T03:00:37;35.28;;;23.08;;
32198;SDS011;19221;42.656;21.156;2023-02-01T03:03:22;29.58;;;18.90;;
32198;SDS011;19221;42.656;21.156;2023-02-01T03:06:11;33.45;;;19.65;;
32198;SDS011;19221;42.656;21.156;2023-02-01T03:13:49;33.63;;;19.85;;
32198;SDS011;19221;42.656;21.156;2023-02-01T03:16:22;28.23;;;17.73;;
32198;SDS011;19221;42.656;21.156;2023-02-01T03:18:55;23.40;;;15.10;;
32198;SDS011;19221;42.656;21.156;2023-02-01T03:23:51;21.75;;;15.63;;
32198;SDS011;19221;42.656;21.156;2023-02-01T03:26:19;20.50;;;13.10;;
32198;SDS011;19221;42.656;21.156;2023-02-01T03:28:48;17.63;;;11.45;;
32198;SDS011;19221;42.656;21.156;2023-02-01T03:31:17;17.88;;;10.63;;
32198;SDS011;19221;42.656;21.156;2023-02-01T03:33:43;18.65;;;9.88;;
32198;SDS011;19221;42.656;21.156;2023-02-01T03:38:43;17.77;;;10.32;;
32198;SDS011;19221;42.656;21.156;2023-02-01T03:49:09;14.95;;;9.93;;
32198;SDS011;19221;42.656;21.156;2023-02-01T03:51:35;18.42;;;10.50;;
32198;SDS011;19221;42.656;21.156;2023-02-01T03:54:01;20.75;;;11.80;;
32198;SDS011;19221;42.656;21.156;2023-02-01T03:56:28;20.75;;;10.63;;
32198;SDS011;19221;42.656;21.156;2023-02-01T03:58:55;17.88;;;10.68;;
32198;SDS011;19221;42.656;21.156;2023-02-01T04:01:25;20.42;;;11.13;;
32198;SDS011;19221;42.656;21.156;2023-02-01T04:03:50;18.98;;;10.52;;
32198;SDS011;19221;42.656;21.156;2023-02-01T04:06:16;18.50;;;11.07;;
32198;SDS011;19221;42.656;21.156;2023-02-01T04:08:42;20.15;;;12.35;;
32198;SDS011;19221;42.656;21.156;2023-02-01T04:11:08;17.50;;;11.60;;
32198;SDS011;19221;42.656;21.156;2023-02-01T04:13:33;20.00;;;12.50;;
32198;SDS011;19221;42.656;21.156;2023-02-01T04:15:59;20.63;;;11.43;;
32198;SDS011;19221;42.656;21.156;2023-02-01T04:18:25;22.08;;;12.90;;
32198;SDS011;19221;42.656;21.156;2023-02-01T04:20:50;20.45;;;11.15;;
32198;SDS011;19221;42.656;21.156;2023-02-01T04:23:16;25.40;;;11.95;;
32198;SDS011;19221;42.656;21.156;2023-02-01T04:25:41;20.92;;;13.02;;
32198;SDS011;19221;42.656;21.156;2023-02-01T04:28:07;19.67;;;12.13;;
32198;SDS011;19221;42.656;21.156;2023-02-01T04:30:33;23.75;;;13.80;;
32198;SDS011;19221;42.656;21.156;2023-02-01T04:32:58;23.77;;;13.50;;
32198;SDS011;19221;42.656;21.156;2023-02-01T04:35:24;21.98;;;12.57;;
32198;SDS011;19221;42.656;21.156;2023-02-01T04:37:50;19.70;;;12.45;;
32198;SDS011;19221;42.656;21.156;2023-02-01T04:40:15;19.40;;;11.63;;
32198;SDS011;19221;42.656;21.156;2023-02-01T04:42:41;18.60;;;11.48;;
32198;SDS011;19221;42.656;21.156;2023-02-01T04:45:07;17.17;;;11.75;;
32198;SDS011;19221;42.656;21.156;2023-02-01T04:47:34;38.90;;;20.90;;
32198;SDS011;19221;42.656;21.156;2023-02-01T04:50:00;44.20;;;22.05;;
32198;SDS011;19221;42.656;21.156;2023-02-01T04:52:25;44.63;;;25.08;;
32198;SDS011;19221;42.656;21.156;2023-02-01T04:54:52;58.15;;;30.13;;
32198;SDS011;19221;42.656;21.156;2023-02-01T04:57:19;62.83;;;31.27;;
32198;SDS011;19221;42.656;21.156;2023-02-01T04:59:45;59.40;;;32.30;;
32198;SDS011;19221;42.656;21.156;2023-02-01T05:02:11;55.83;;;30.67;;
32198;SDS011;19221;42.656;21.156;2023-02-01T05:04:36;48.65;;;26.50;;
32198;SDS011;19221;42.656;21.156;2023-02-01T05:07:02;41.28;;;23.35;;
32198;SDS011;19221;42.656;21.156;2023-02-01T05:09:28;41.90;;;23.50;;
32198;SDS011;19221;42.656;21.156;2023-02-01T05:11:53;38.33;;;22.20;;
32198;SDS011;19221;42.656;21.156;2023-02-01T05:14:37;39.72;;;22.75;;
32198;SDS011;19221;42.656;21.156;2023-02-01T05:17:03;37.00;;;20.85;;
32198;SDS011;19221;42.656;21.156;2023-02-01T05:19:29;34.53;;;20.27;;
32198;SDS011;19221;42.656;21.156;2023-02-01T05:21:54;30.85;;;18.48;;
32198;SDS011;19221;42.656;21.156;2023-02-01T05:24:20;29.90;;;17.85;;
32198;SDS011;19221;42.656;21.156;2023-02-01T05:26:46;29.85;;;18.38;;
32198;SDS011;19221;42.656;21.156;2023-02-01T05:29:12;23.85;;;12.90;;
32198;SDS011;19221;42.656;21.156;2023-02-01T05:31:38;21.75;;;14.05;;
32198;SDS011;19221;42.656;21.156;2023-02-01T05:34:05;22.42;;;13.32;;
32198;SDS011;19221;42.656;21.156;2023-02-01T05:36:30;27.58;;;15.68;;
32198;SDS011;19221;42.656;21.156;2023-02-01T05:38:56;23.60;;;14.55;;
32198;SDS011;19221;42.656;21.156;2023-02-01T05:41:22;24.83;;;13.07;;
32198;SDS011;19221;42.656;21.156;2023-02-01T05:43:47;23.67;;;12.45;;
32198;SDS011;19221;42.656;21.156;2023-02-01T05:46:13;23.48;;;12.23;;
32198;SDS011;19221;42.656;21.156;2023-02-01T05:48:42;20.50;;;12.90;;
32198;SDS011;19221;42.656;21.156;2023-02-01T05:51:08;20.73;;;12.07;;
32198;SDS011;19221;42.656;21.156;2023-02-01T05:53:34;25.88;;;14.23;;
32198;SDS011;19221;42.656;21.156;2023-02-01T05:56:00;20.65;;;11.93;;
32198;SDS011;19221;42.656;21.156;2023-02-01T05:58:26;24.60;;;13.80;;
32198;SDS011;19221;42.656;21.156;2023-02-01T06:00:51;25.88;;;15.05;;
32198;SDS011;19221;42.656;21.156;2023-02-01T06:03:17;23.75;;;13.57;;
32198;SDS011;19221;42.656;21.156;2023-02-01T06:05:43;21.65;;;12.35;;
32198;SDS011;19221;42.656;21.156;2023-02-01T06:08:09;25.15;;;13.35;;
32198;SDS011;19221;42.656;21.156;2023-02-01T06:10:35;21.08;;;12.05;;
32198;SDS011;19221;42.656;21.156;2023-02-01T06:13:00;22.67;;;13.40;;
32198;SDS011;19221;42.656;21.156;2023-02-01T06:15:26;26.70;;;14.80;;
32198;SDS011;19221;42.656;21.156;2023-02-01T06:17:52;26.42;;;14.75;;
32198;SDS011;19221;42.656;21.156;2023-02-01T06:20:18;27.13;;;16.90;;
32198;SDS011;19221;42.656;21.156;2023-02-01T06:22:43;37.20;;;23.40;;
32198;SDS011;19221;42.656;21.156;2023-02-01T06:25:09;26.92;;;16.83;;
32198;SDS011;19221;42.656;21.156;2023-02-01T06:27:35;30.08;;;17.35;;
32198;SDS011;19221;42.656;21.156;2023-02-01T06:30:02;32.63;;;16.92;;
32198;SDS011;19221;42.656;21.156;2023-02-01T06:32:28;28.45;;;14.13;;
32198;SDS011;19221;42.656;21.156;2023-02-01T06:34:53;23.02;;;13.23;;
32198;SDS011;19221;42.656;21.156;2023-02-01T06:37:21;26.50;;;12.02;;
32198;SDS011;19221;42.656;21.156;2023-02-01T06:39:48;21.23;;;12.55;;
32198;SDS011;19221;42.656;21.156;2023-02-01T06:42:14;19.95;;;11.23;;
32198;SDS011;19221;42.656;21.156;2023-02-01T06:44:40;15.73;;;10.32;;
32198;SDS011;19221;42.656;21.156;2023-02-01T06:47:06;19.10;;;11.40;;
32198;SDS011;19221;42.656;21.156;2023-02-01T06:49:31;19.55;;;12.63;;
32198;SDS011;19221;42.656;21.156;2023-02-01T06:51:57;22.02;;;13.18;;
32198;SDS011;19221;42.656;21.156;2023-02-01T06:54:25;24.55;;;14.27;;
32198;SDS011;19221;42.656;21.156;2023-02-01T06:56:51;18.67;;;11.93;;
32198;SDS011;19221;42.656;21.156;2023-02-01T06:59:17;24.33;;;13.05;;
32198;SDS011;19221;42.656;21.156;2023-02-01T07:01:42;23.60;;;14.20;;
32198;SDS011;19221;42.656;21.156;2023-02-01T07:04:09;22.73;;;11.38;;
32198;SDS011;19221;42.656;21.156;2023-02-01T07:06:35;29.60;;;15.95;;
32198;SDS011;19221;42.656;21.156;2023-02-01T07:09:01;24.98;;;13.75;;
32198;SDS011;19221;42.656;21.156;2023-02-01T07:11:26;27.75;;;16.38;;
32198;SDS011;19221;42.656;21.156;2023-02-01T07:13:53;23.67;;;13.70;;
32198;SDS011;19221;42.656;21.156;2023-02-01T07:16:19;20.85;;;13.10;;
32198;SDS011;19221;42.656;21.156;2023-02-01T07:18:45;31.80;;;18.55;;
32198;SDS011;19221;42.656;21.156;2023-02-01T07:21:11;36.92;;;21.65;;
32198;SDS011;19221;42.656;21.156;2023-02-01T07:23:37;46.45;;;27.05;;
32198;SDS011;19221;42.656;21.156;2023-02-01T07:26:04;29.73;;;16.20;;
32198;SDS011;19221;42.656;21.156;2023-02-01T07:28:30;31.73;;;17.48;;
32198;SDS011;19221;42.656;21.156;2023-02-01T07:31:06;29.73;;;15.48;;
32198;SDS011;19221;42.656;21.156;2023-02-01T07:33:32;20.42;;;10.55;;
32198;SDS011;19221;42.656;21.156;2023-02-01T07:35:59;20.90;;;12.15;;
32198;SDS011;19221;42.656;21.156;2023-02-01T07:38:25;25.88;;;12.77;;
32198;SDS011;19221;42.656;21.156;2023-02-01T07:40:56;25.92;;;13.52;;
32198;SDS011;19221;42.656;21.156;2023-02-01T07:43:22;27.90;;;14.30;;
32198;SDS011;19221;42.656;21.156;2023-02-01T07:45:51;19.52;;;10.95;;
32198;SDS011;19221;42.656;21.156;2023-02-01T07:48:17;27.13;;;13.30;;
32198;SDS011;19221;42.656;21.156;2023-02-01T07:50:43;17.63;;;9.70;;
32198;SDS011;19221;42.656;21.156;2023-02-01T07:53:09;18.15;;;10.27;;
32198;SDS011;19221;42.656;21.156;2023-02-01T07:55:37;22.48;;;12.32;;
32198;SDS011;19221;42.656;21.156;2023-02-01T07:58:02;22.70;;;10.35;;
32198;SDS011;19221;42.656;21.156;2023-02-01T08:00:28;19.75;;;9.15;;
32198;SDS011;19221;42.656;21.156;2023-02-01T08:03:12;23.05;;;10.75;;
32198;SDS011;19221;42.656;21.156;2023-02-01T08:05:38;39.60;;;17.92;;
32198;SDS011;19221;42.656;21.156;2023-02-01T08:08:04;26.85;;;12.95;;
32198;SDS011;19221;42.656;21.156;2023-02-01T08:10:30;37.47;;;20.30;;
32198;SDS011;19221;42.656;21.156;2023-02-01T08:12:59;56.75;;;31.17;;
32198;SDS011;19221;42.656;21.156;2023-02-01T08:15:26;34.75;;;19.65;;
32198;SDS011;19221;42.656;21.156;2023-02-01T08:17:53;28.25;;;13.93;;
32198;SDS011;19221;42.656;21.156;2023-02-01T08:20:20;40.58;;;19.60;;
32198;SDS011;19221;42.656;21.156;2023-02-01T08:22:52;29.48;;;12.57;;
32198;SDS011;19221;42.656;21.156;2023-02-01T08:25:18;28.55;;;11.07;;
32198;SDS011;19221;42.656;21.156;2023-02-01T08:27:44;19.38;;;8.60;;
32198;SDS011;19221;42.656;21.156;2023-02-01T08:30:10;27.80;;;10.93;;
32198;SDS011;19221;42.656;21.156;2023-02-01T08:32:37;20.88;;;10.15;;
32198;SDS011;19221;42.656;21.156;2023-02-01T08:35:03;25.38;;;10.32;;
32198;SDS011;19221;42.656;21.156;2023-02-01T08:37:29;27.10;;;11.02;;
32198;SDS011;19221;42.656;21.156;2023-02-01T08:39:54;32.13;;;12.77;;
32198;SDS011;19221;42.656;21.156;2023-02-01T08:42:20;36.45;;;14.50;;
32198;SDS011;19221;42.656;21.156;2023-02-01T08:45:04;45.22;;;15.60;;
32198;SDS011;19221;42.656;21.156;2023-02-01T08:47:30;39.00;;;16.05;;
32198;SDS011;19221;42.656;21.156;2023-02-01T08:49:56;43.17;;;21.05;;
32198;SDS011;19221;42.656;21.156;2023-02-01T08:52:22;41.78;;;18.58;;
32198;SDS011;19221;42.656;21.156;2023-02-01T08:54:48;40.30;;;18.58;;
32198;SDS011;19221;42.656;21.156;2023-02-01T08:57:13;52.88;;;22.95;;
32198;SDS011;19221;42.656;21.156;2023-02-01T08:59:39;57.25;;;21.38;;
32198;SDS011;19221;42.656;21.156;2023-02-01T09:02:05;53.33;;;21.13;;
32198;SDS011;19221;42.656;21.156;2023-02-01T09:04:30;42.15;;;18.48;;
32198;SDS011;19221;42.656;21.156;2023-02-01T09:06:56;55.40;;;23.27;;
32198;SDS011;19221;42.656;21.156;2023-02-01T09:09:22;43.92;;;20.02;;
32198;SDS011;19221;42.656;21.156;2023-02-01T09:11:48;42.53;;;18.80;;
32198;SDS011;19221;42.656;21.156;2023-02-01T09:14:16;42.10;;;18.25;;
32198;SDS011;19221;42.656;21.156;2023-02-01T09:16:41;40.38;;;18.35;;
32198;SDS011;19221;42.656;21.156;2023-02-01T09:19:07;31.98;;;15.63;;
32198;SDS011;19221;42.656;21.156;2023-02-01T09:21:33;32.05;;;13.55;;
32198;SDS011;19221;42.656;21.156;2023-02-01T09:23:59;35.13;;;14.07;;
32198;SDS011;19221;42.656;21.156;2023-02-01T09:26:25;31.48;;;13.90;;
32198;SDS011;19221;42.656;21.156;2023-02-01T09:28:51;33.70;;;12.40;;
32198;SDS011;19221;42.656;21.156;2023-02-01T09:31:17;36.53;;;14.40;;
32198;SDS011;19221;42.656;21.156;2023-02-01T09:33:42;34.35;;;13.63;;
32198;SDS011;19221;42.656;21.156;2023-02-01T09:36:08;30.50;;;13.52;;
32198;SDS011;19221;42.656;21.156;2023-02-01T09:38:34;37.13;;;14.57;;
32198;SDS011;19221;42.656;21.156;2023-02-01T09:41:00;44.60;;;16.65;;
32198;SDS011;19221;42.656;21.156;2023-02-01T09:48:33;31.38;;;12.82;;
32198;SDS011;19221;42.656;21.156;2023-02-01T09:51:02;42.10;;;19.02;;
32198;SDS011;19221;42.656;21.156;2023-02-01T09:53:40;37.22;;;16.15;;
32198;SDS011;19221;42.656;21.156;2023-02-01T09:56:12;35.10;;;12.70;;
32198;SDS011;19221;42.656;21.156;2023-02-01T10:01:08;19.52;;;9.70;;
32198;SDS011;19221;42.656;21.156;2023-02-01T10:03:36;13.18;;;5.55;;
32198;SDS011;19221;42.656;21.156;2023-02-01T10:08:37;18.60;;;6.90;;
32198;SDS011;19221;42.656;21.156;2023-02-01T10:14:16;17.80;;;6.93;;
32198;SDS011;19221;42.656;21.156;2023-02-01T10:16:50;19.63;;;7.03;;
32198;SDS011;19221;42.656;21.156;2023-02-01T10:19:23;15.15;;;5.00;;
32198;SDS011;19221;42.656;21.156;2023-02-01T10:22:09;10.88;;;3.70;;
32198;SDS011;19221;42.656;21.156;2023-02-01T10:24:42;11.48;;;4.00;;
32198;SDS011;19221;42.656;21.156;2023-02-01T10:27:12;7.15;;;3.83;;
32198;SDS011;19221;42.656;21.156;2023-02-01T10:29:39;9.00;;;4.18;;
32198;SDS011;19221;42.656;21.156;2023-02-01T10:32:13;13.15;;;3.75;;
32198;SDS011;19221;42.656;21.156;2023-02-01T10:34:39;10.05;;;4.40;;
32198;SDS011;19221;42.656;21.156;2023-02-01T10:39:33;14.88;;;6.28;;
32198;SDS011;19221;42.656;21.156;2023-02-01T10:41:59;13.38;;;4.95;;
32198;SDS011;19221;42.656;21.156;2023-02-01T10:44:30;11.68;;;4.05;;
32198;SDS011;19221;42.656;21.156;2023-02-01T10:46:56;15.77;;;4.03;;
32198;SDS011;19221;42.656;21.156;2023-02-01T10:54:58;23.33;;;8.45;;
32198;SDS011;19221;42.656;21.156;2023-02-01T10:57:48;14.40;;;4.65;;
32198;SDS011;19221;42.656;21.156;2023-02-01T11:00:20;14.68;;;5.45;;
32198;SDS011;19221;42.656;21.156;2023-02-01T11:02:46;13.32;;;4.50;;
32198;SDS011;19221;42.656;21.156;2023-02-01T11:05:15;31.15;;;7.78;;
32198;SDS011;19221;42.656;21.156;2023-02-01T11:07:48;22.17;;;6.30;;
32198;SDS011;19221;42.656;21.156;2023-02-01T11:12:59;11.70;;;4.63;;
32198;SDS011;19221;42.656;21.156;2023-02-01T11:15:26;9.63;;;3.88;;
32198;SDS011;19221;42.656;21.156;2023-02-01T11:17:52;13.02;;;4.10;;
32198;SDS011;19221;42.656;21.156;2023-02-01T11:20:39;11.75;;;4.22;;
32198;SDS011;19221;42.656;21.156;2023-02-01T11:23:11;12.93;;;4.55;;
32198;SDS011;19221;42.656;21.156;2023-02-01T11:25:40;12.52;;;4.65;;
32198;SDS011;19221;42.656;21.156;2023-02-01T11:28:12;15.98;;;4.95;;
32198;SDS011;19221;42.656;21.156;2023-02-01T11:30:40;16.55;;;4.50;;
32198;SDS011;19221;42.656;21.156;2023-02-01T11:33:07;12.18;;;4.93;;
32198;SDS011;19221;42.656;21.156;2023-02-01T11:35:37;14.40;;;4.53;;
32198;SDS011;19221;42.656;21.156;2023-02-01T11:38:09;9.10;;;4.13;;
32198;SDS011;19221;42.656;21.156;2023-02-01T11:40:37;9.00;;;4.22;;
32198;SDS011;19221;42.656;21.156;2023-02-01T11:45:37;14.73;;;6.13;;
32198;SDS011;19221;42.656;21.156;2023-02-01T11:48:07;12.70;;;4.63;;
32198;SDS011;19221;42.656;21.156;2023-02-01T11:50:43;7.57;;;3.33;;
32198;SDS011;19221;42.656;21.156;2023-02-01T11:53:20;15.68;;;6.07;;
32198;SDS011;19221;42.656;21.156;2023-02-01T11:55:55;11.00;;;4.65;;
32198;SDS011;19221;42.656;21.156;2023-02-01T12:06:23;20.80;;;5.60;;
32198;SDS011;19221;42.656;21.156;2023-02-01T12:09:11;36.20;;;8.18;;
32198;SDS011;19221;42.656;21.156;2023-02-01T12:19:26;18.60;;;5.03;;
32198;SDS011;19221;42.656;21.156;2023-02-01T12:22:04;4.88;;;2.40;;
32198;SDS011;19221;42.656;21.156;2023-02-01T12:27:26;9.40;;;4.10;;
32198;SDS011;19221;42.656;21.156;2023-02-01T12:37:38;12.90;;;3.97;;
32198;SDS011;19221;42.656;21.156;2023-02-01T12:43:01;17.77;;;6.15;;
32198;SDS011;19221;42.656;21.156;2023-02-01T12:47:55;10.02;;;3.67;;
32198;SDS011;19221;42.656;21.156;2023-02-01T12:50:25;11.80;;;5.05;;
32198;SDS011;19221;42.656;21.156;2023-02-01T12:52:53;7.90;;;2.97;;
32198;SDS011;19221;42.656;21.156;2023-02-01T12:55:36;18.85;;;8.82;;
32198;SDS011;19221;42.656;21.156;2023-02-01T13:00:43;15.02;;;4.88;;
32198;SDS011;19221;42.656;21.156;2023-02-01T13:05:47;9.65;;;3.05;;
32198;SDS011;19221;42.656;21.156;2023-02-01T13:08:21;10.32;;;3.60;;
32198;SDS011;19221;42.656;21.156;2023-02-01T13:10:54;16.23;;;4.25;;
32198;SDS011;19221;42.656;21.156;2023-02-01T13:13:22;7.13;;;2.47;;
32198;SDS011;19221;42.656;21.156;2023-02-01T13:15:58;10.25;;;3.88;;
32198;SDS011;19221;42.656;21.156;2023-02-01T13:18:31;4.72;;;2.60;;
32198;SDS011;19221;42.656;21.156;2023-02-01T13:21:02;7.32;;;3.50;;
32198;SDS011;19221;42.656;21.156;2023-02-01T13:23:30;8.60;;;3.15;;
32198;SDS011;19221;42.656;21.156;2023-02-01T13:25:56;3.40;;;2.10;;
32198;SDS011;19221;42.656;21.156;2023-02-01T13:41:22;21.50;;;7.32;;
32198;SDS011;19221;42.656;21.156;2023-02-01T13:43:52;18.58;;;5.85;;
32198;SDS011;19221;42.656;21.156;2023-02-01T13:46:19;18.63;;;5.53;;
32198;SDS011;19221;42.656;21.156;2023-02-01T13:48:46;25.77;;;5.55;;
32198;SDS011;19221;42.656;21.156;2023-02-01T13:51:14;17.58;;;6.00;;
32198;SDS011;19221;42.656;21.156;2023-02-01T13:53:44;6.53;;;3.00;;
32198;SDS011;19221;42.656;21.156;2023-02-01T13:56:15;7.68;;;3.30;;
32198;SDS011;19221;42.656;21.156;2023-02-01T14:08:43;7.03;;;2.92;;
32198;SDS011;19221;42.656;21.156;2023-02-01T14:11:31;10.00;;;3.20;;
32198;SDS011;19221;42.656;21.156;2023-02-01T14:13:57;6.47;;;3.58;;
32198;SDS011;19221;42.656;21.156;2023-02-01T14:16:32;6.72;;;3.45;;
32198;SDS011;19221;42.656;21.156;2023-02-01T14:18:58;10.98;;;3.40;;
32198;SDS011;19221;42.656;21.156;2023-02-01T14:21:31;3.38;;;1.88;;
32198;SDS011;19221;42.656;21.156;2023-02-01T14:34:15;7.07;;;3.60;;
32198;SDS011;19221;42.656;21.156;2023-02-01T14:36:43;10.98;;;3.70;;
32198;SDS011;19221;42.656;21.156;2023-02-01T14:39:20;12.75;;;4.93;;
32198;SDS011;19221;42.656;21.156;2023-02-01T14:41:46;24.90;;;7.05;;
32198;SDS011;19221;42.656;21.156;2023-02-01T14:44:13;7.78;;;3.53;;
32198;SDS011;19221;42.656;21.156;2023-02-01T14:49:24;18.90;;;6.70;;
32198;SDS011;19221;42.656;21.156;2023-02-01T14:51:54;9.50;;;5.13;;
32198;SDS011;19221;42.656;21.156;2023-02-01T14:54:22;12.32;;;4.82;;
32198;SDS011;19221;42.656;21.156;2023-02-01T14:56:48;9.95;;;4.65;;
32198;SDS011;19221;42.656;21.156;2023-02-01T14:59:15;6.10;;;3.47;;
32198;SDS011;19221;42.656;21.156;2023-02-01T15:01:55;9.60;;;4.65;;
32198;SDS011;19221;42.656;21.156;2023-02-01T15:04:24;9.00;;;4.30;;
32198;SDS011;19221;42.656;21.156;2023-02-01T15:06:51;16.98;;;7.38;;
32198;SDS011;19221;42.656;21.156;2023-02-01T15:14:23;11.18;;;4.38;;
32198;SDS011;19221;42.656;21.156;2023-02-01T15:16:49;8.20;;;4.22;;
32198;SDS011;19221;42.656;21.156;2023-02-01T15:19:22;13.10;;;4.28;;
32198;SDS011;19221;42.656;21.156;2023-02-01T15:21:49;8.05;;;3.42;;
32198;SDS011;19221;42.656;21.156;2023-02-01T15:24:19;10.02;;;4.35;;
32198;SDS011;19221;42.656;21.156;2023-02-01T15:26:45;9.98;;;4.65;;
32198;SDS011;19221;42.656;21.156;2023-02-01T15:29:12;8.75;;;4.60;;
32198;SDS011;19221;42.656;21.156;2023-02-01T15:31:55;12.80;;;4.65;;
32198;SDS011;19221;42.656;21.156;2023-02-01T15:34:21;22.10;;;6.72;;
32198;SDS011;19221;42.656;21.156;2023-02-01T15:36:47;13.13;;;6.63;;
32198;SDS011;19221;42.656;21.156;2023-02-01T15:41:52;14.27;;;7.95;;
32198;SDS011;19221;42.656;21.156;2023-02-01T15:44:20;21.25;;;7.90;;
32198;SDS011;19221;42.656;21.156;2023-02-01T15:46:48;17.48;;;8.30;;
32198;SDS011;19221;42.656;21.156;2023-02-01T15:49:23;17.70;;;8.20;;
32198;SDS011;19221;42.656;21.156;2023-02-01T15:51:49;21.08;;;9.85;;
32198;SDS011;19221;42.656;21.156;2023-02-01T15:54:16;25.67;;;10.20;;
32198;SDS011;19221;42.656;21.156;2023-02-01T15:56:49;29.75;;;10.65;;
32198;SDS011;19221;42.656;21.156;2023-02-01T15:59:19;27.60;;;11.90;;
32198;SDS011;19221;42.656;21.156;2023-02-01T16:01:46;23.75;;;10.57;;
32198;SDS011;19221;42.656;21.156;2023-02-01T16:06:48;30.92;;;11.55;;
32198;SDS011;19221;42.656;21.156;2023-02-01T16:09:14;36.47;;;14.85;;
32198;SDS011;19221;42.656;21.156;2023-02-01T16:11:41;43.55;;;19.40;;
32198;SDS011;19221;42.656;21.156;2023-02-01T16:14:11;44.72;;;22.13;;
32198;SDS011;19221;42.656;21.156;2023-02-01T16:16:37;40.30;;;21.33;;
32198;SDS011;19221;42.656;21.156;2023-02-01T16:19:02;51.28;;;22.60;;
32198;SDS011;19221;42.656;21.156;2023-02-01T16:21:28;56.78;;;23.70;;
32198;SDS011;19221;42.656;21.156;2023-02-01T16:23:54;55.50;;;27.70;;
32198;SDS011;19221;42.656;21.156;2023-02-01T16:26:20;70.80;;;32.88;;
32198;SDS011;19221;42.656;21.156;2023-02-01T16:28:46;46.78;;;23.00;;
32198;SDS011;19221;42.656;21.156;2023-02-01T16:31:12;43.33;;;20.85;;
32198;SDS011;19221;42.656;21.156;2023-02-01T16:33:53;45.17;;;23.27;;
32198;SDS011;19221;42.656;21.156;2023-02-01T16:36:19;61.97;;;28.85;;
32198;SDS011;19221;42.656;21.156;2023-02-01T16:38:46;64.25;;;25.42;;
32198;SDS011;19221;42.656;21.156;2023-02-01T16:41:13;53.58;;;24.25;;
32198;SDS011;19221;42.656;21.156;2023-02-01T16:43:40;57.63;;;25.80;;
32198;SDS011;19221;42.656;21.156;2023-02-01T16:46:05;51.35;;;25.50;;
32198;SDS011;19221;42.656;21.156;2023-02-01T16:51:03;61.58;;;30.77;;
32198;SDS011;19221;42.656;21.156;2023-02-01T16:53:32;65.13;;;32.83;;